sensor_id;sensor_type;location;lat;lon;timestamp;P1;durP1;ratioP1;P2;durP2;ratioP2
21000;SDS011;10658;50.920;12.238;2023-03-01T00:03:56;22.50;;;13.20;;
21000;SDS011;10658;50.920;12.238;2023-03-01T00:07:58;25.40;;;13.63;;
21000;SDS011;10658;50.920;12.238;2023-03-01T00:11:59;28.67;;;14.27;;
21000;SDS011;10658;50.920;12.238;2023-03-01T00:16:04;25.23;;;13.13;;
21000;SDS011;10658;50.920;12.238;2023-03-01T00:20:08;23.37;;;12.43;;
21000;SDS011;10658;50.920;12.238;2023-03-01T00:24:11;27.10;;;13.63;;
21000;SDS011;10658;50.920;12.238;2023-03-01T00:28:13;26.57;;;13.10;;
21000;SDS011;10658;50.920;12.238;2023-03-01T00:32:15;21.33;;;13.10;;
21000;SDS011;10658;50.920;12.238;2023-03-01T00:36:17;22.27;;;12.43;;
21000;SDS011;10658;50.920;12.238;2023-03-01T00:40:18;25.83;;;13.57;;
21000;SDS011;10658;50.920;12.238;2023-03-01T00:44:20;21.40;;;12.87;;
21000;SDS011;10658;50.920;12.238;2023-03-01T00:48:21;26.90;;;13.37;;
21000;SDS011;10658;50.920;12.238;2023-03-01T00:52:22;24.03;;;12.17;;
21000;SDS011;10658;50.920;12.238;2023-03-01T00:56:24;23.53;;;12.53;;
21000;SDS011;10658;50.920;12.238;2023-03-01T01:00:27;20.97;;;12.73;;
21000;SDS011;10658;50.920;12.238;2023-03-01T01:04:27;25.03;;;12.37;;
21000;SDS011;10658;50.920;12.238;2023-03-01T01:08:31;21.17;;;13.17;;
21000;SDS011;10658;50.920;12.238;2023-03-01T01:12:32;20.37;;;12.00;;
21000;SDS011;10658;50.920;12.238;2023-03-01T01:16:33;23.33;;;11.73;;
21000;SDS011;10658;50.920;12.238;2023-03-01T01:20:35;20.63;;;11.37;;
21000;SDS011;10658;50.920;12.238;2023-03-01T01:24:38;22.53;;;12.60;;
21000;SDS011;10658;50.920;12.238;2023-03-01T01:28:39;19.77;;;12.33;;
21000;SDS011;10658;50.920;12.238;2023-03-01T01:32:41;23.77;;;13.00;;
21000;SDS011;10658;50.920;12.238;2023-03-01T01:36:47;21.10;;;12.27;;
21000;SDS011;10658;50.920;12.238;2023-03-01T01:40:54;23.17;;;13.07;;
21000;SDS011;10658;50.920;12.238;2023-03-01T01:49:43;24.00;;;11.27;;
21000;SDS011;10658;50.920;12.238;2023-03-01T01:53:45;29.50;;;12.23;;
21000;SDS011;10658;50.920;12.238;2023-03-01T01:57:52;21.50;;;12.33;;
21000;SDS011;10658;50.920;12.238;2023-03-01T02:01:56;18.67;;;11.67;;
21000;SDS011;10658;50.920;12.238;2023-03-01T02:06:31;21.57;;;12.33;;
21000;SDS011;10658;50.920;12.238;2023-03-01T02:10:37;26.67;;;13.30;;
21000;SDS011;10658;50.920;12.238;2023-03-01T02:14:38;20.53;;;11.67;;
21000;SDS011;10658;50.920;12.238;2023-03-01T02:18:40;21.27;;;10.87;;
21000;SDS011;10658;50.920;12.238;2023-03-01T02:22:43;23.70;;;12.17;;
21000;SDS011;10658;50.920;12.238;2023-03-01T02:26:48;23.83;;;11.70;;
21000;SDS011;10658;50.920;12.238;2023-03-01T02:30:55;22.40;;;11.90;;
21000;SDS011;10658;50.920;12.238;2023-03-01T02:35:17;19.63;;;11.03;;
21000;SDS011;10658;50.920;12.238;2023-03-01T02:39:22;20.87;;;11.50;;
21000;SDS011;10658;50.920;12.238;2023-03-01T02:43:29;23.57;;;12.13;;
21000;SDS011;10658;50.920;12.238;2023-03-01T02:47:34;20.53;;;10.83;;
21000;SDS011;10658;50.920;12.238;2023-03-01T02:51:56;26.70;;;12.10;;
21000;SDS011;10658;50.920;12.238;2023-03-01T02:56:16;21.33;;;11.70;;
21000;SDS011;10658;50.920;12.238;2023-03-01T03:00:20;19.77;;;10.73;;
21000;SDS011;10658;50.920;12.238;2023-03-01T03:04:25;27.03;;;12.63;;
21000;SDS011;10658;50.920;12.238;2023-03-01T03:08:27;24.93;;;12.13;;
21000;SDS011;10658;50.920;12.238;2023-03-01T03:18:32;23.83;;;11.60;;
21000;SDS011;10658;50.920;12.238;2023-03-01T03:22:27;24.57;;;12.23;;
21000;SDS011;10658;50.920;12.238;2023-03-01T03:26:29;21.93;;;11.57;;
21000;SDS011;10658;50.920;12.238;2023-03-01T03:30:31;21.70;;;11.27;;
21000;SDS011;10658;50.920;12.238;2023-03-01T03:34:32;23.53;;;12.50;;
21000;SDS011;10658;50.920;12.238;2023-03-01T03:38:34;23.70;;;11.63;;
21000;SDS011;10658;50.920;12.238;2023-03-01T03:42:34;23.93;;;11.73;;
21000;SDS011;10658;50.920;12.238;2023-03-01T03:46:36;24.03;;;12.77;;
21000;SDS011;10658;50.920;12.238;2023-03-01T03:50:38;23.97;;;11.87;;
21000;SDS011;10658;50.920;12.238;2023-03-01T03:54:40;21.30;;;11.87;;
21000;SDS011;10658;50.920;12.238;2023-03-01T03:58:42;22.80;;;11.77;;
21000;SDS011;10658;50.920;12.238;2023-03-01T04:02:43;22.13;;;12.13;;
21000;SDS011;10658;50.920;12.238;2023-03-01T04:06:46;23.10;;;11.93;;
21000;SDS011;10658;50.920;12.238;2023-03-01T04:10:50;20.47;;;10.80;;
21000;SDS011;10658;50.920;12.238;2023-03-01T04:14:52;21.53;;;11.70;;
21000;SDS011;10658;50.920;12.238;2023-03-01T04:18:53;19.67;;;11.03;;
21000;SDS011;10658;50.920;12.238;2023-03-01T04:22:59;21.97;;;11.13;;
21000;SDS011;10658;50.920;12.238;2023-03-01T04:27:16;22.77;;;12.10;;
21000;SDS011;10658;50.920;12.238;2023-03-01T04:31:17;23.43;;;11.57;;
21000;SDS011;10658;50.920;12.238;2023-03-01T04:35:21;20.30;;;11.73;;
21000;SDS011;10658;50.920;12.238;2023-03-01T04:39:22;25.33;;;12.37;;
21000;SDS011;10658;50.920;12.238;2023-03-01T04:43:23;23.37;;;11.97;;
21000;SDS011;10658;50.920;12.238;2023-03-01T04:47:24;22.40;;;12.23;;
21000;SDS011;10658;50.920;12.238;2023-03-01T04:51:26;19.77;;;11.03;;
21000;SDS011;10658;50.920;12.238;2023-03-01T04:55:27;26.57;;;11.47;;
21000;SDS011;10658;50.920;12.238;2023-03-01T04:59:29;24.53;;;11.47;;
21000;SDS011;10658;50.920;12.238;2023-03-01T05:03:31;23.60;;;11.50;;
21000;SDS011;10658;50.920;12.238;2023-03-01T05:07:32;20.93;;;12.77;;
21000;SDS011;10658;50.920;12.238;2023-03-01T05:11:33;28.93;;;13.50;;
21000;SDS011;10658;50.920;12.238;2023-03-01T05:15:40;27.37;;;13.73;;
21000;SDS011;10658;50.920;12.238;2023-03-01T05:19:41;25.30;;;13.67;;
21000;SDS011;10658;50.920;12.238;2023-03-01T05:23:43;25.53;;;13.10;;
21000;SDS011;10658;50.920;12.238;2023-03-01T05:27:45;25.23;;;13.13;;
21000;SDS011;10658;50.920;12.238;2023-03-01T05:31:46;26.60;;;13.83;;
21000;SDS011;10658;50.920;12.238;2023-03-01T05:35:47;22.33;;;12.03;;
21000;SDS011;10658;50.920;12.238;2023-03-01T05:39:49;24.70;;;12.37;;
21000;SDS011;10658;50.920;12.238;2023-03-01T05:43:51;29.07;;;12.70;;
21000;SDS011;10658;50.920;12.238;2023-03-01T05:47:53;29.17;;;15.30;;
21000;SDS011;10658;50.920;12.238;2023-03-01T05:51:55;26.10;;;13.97;;
21000;SDS011;10658;50.920;12.238;2023-03-01T05:55:56;32.13;;;14.93;;
21000;SDS011;10658;50.920;12.238;2023-03-01T05:59:57;27.17;;;14.80;;
21000;SDS011;10658;50.920;12.238;2023-03-01T06:03:58;28.97;;;14.37;;
21000;SDS011;10658;50.920;12.238;2023-03-01T06:07:59;23.87;;;14.30;;
21000;SDS011;10658;50.920;12.238;2023-03-01T06:12:02;24.70;;;13.33;;
21000;SDS011;10658;50.920;12.238;2023-03-01T06:16:06;27.77;;;13.50;;
21000;SDS011;10658;50.920;12.238;2023-03-01T06:20:09;27.87;;;13.83;;
21000;SDS011;10658;50.920;12.238;2023-03-01T06:24:12;27.90;;;14.33;;
21000;SDS011;10658;50.920;12.238;2023-03-01T06:28:13;31.30;;;15.07;;
21000;SDS011;10658;50.920;12.238;2023-03-01T06:32:14;28.73;;;16.30;;
21000;SDS011;10658;50.920;12.238;2023-03-01T06:36:17;23.27;;;13.33;;
21000;SDS011;10658;50.920;12.238;2023-03-01T06:40:21;23.40;;;12.83;;
21000;SDS011;10658;50.920;12.238;2023-03-01T06:44:22;29.93;;;15.17;;
21000;SDS011;10658;50.920;12.238;2023-03-01T06:48:23;29.07;;;14.13;;
21000;SDS011;10658;50.920;12.238;2023-03-01T06:52:24;30.87;;;15.47;;
21000;SDS011;10658;50.920;12.238;2023-03-01T06:56:28;37.30;;;18.47;;
21000;SDS011;10658;50.920;12.238;2023-03-01T07:00:30;36.47;;;17.83;;
21000;SDS011;10658;50.920;12.238;2023-03-01T07:04:32;35.57;;;17.50;;
21000;SDS011;10658;50.920;12.238;2023-03-01T07:08:32;34.20;;;18.50;;
21000;SDS011;10658;50.920;12.238;2023-03-01T07:12:33;33.43;;;17.37;;
21000;SDS011;10658;50.920;12.238;2023-03-01T07:16:34;37.10;;;17.60;;
21000;SDS011;10658;50.920;12.238;2023-03-01T07:20:38;31.23;;;17.10;;
21000;SDS011;10658;50.920;12.238;2023-03-01T07:24:39;34.80;;;18.80;;
21000;SDS011;10658;50.920;12.238;2023-03-01T07:28:48;31.55;;;16.90;;
21000;SDS011;10658;50.920;12.238;2023-03-01T07:32:49;34.83;;;17.93;;
21000;SDS011;10658;50.920;12.238;2023-03-01T07:36:50;33.05;;;16.30;;
21000;SDS011;10658;50.920;12.238;2023-03-01T07:40:51;37.77;;;18.43;;
21000;SDS011;10658;50.920;12.238;2023-03-01T07:44:52;32.72;;;17.63;;
21000;SDS011;10658;50.920;12.238;2023-03-01T07:48:54;34.22;;;19.25;;
21000;SDS011;10658;50.920;12.238;2023-03-01T07:52:55;36.13;;;18.00;;
21000;SDS011;10658;50.920;12.238;2023-03-01T07:57:02;36.67;;;20.02;;
21000;SDS011;10658;50.920;12.238;2023-03-01T08:01:04;38.58;;;20.23;;
21000;SDS011;10658;50.920;12.238;2023-03-01T08:10:42;35.30;;;18.77;;
21000;SDS011;10658;50.920;12.238;2023-03-01T09:54:05;29.48;;;15.68;;
21000;SDS011;10658;50.920;12.238;2023-03-01T10:20:42;28.73;;;17.27;;
21000;SDS011;10658;50.920;12.238;2023-03-01T10:34:33;27.55;;;14.90;;
21000;SDS011;10658;50.920;12.238;2023-03-01T10:38:55;28.20;;;15.10;;
21000;SDS011;10658;50.920;12.238;2023-03-01T10:43:18;22.40;;;14.65;;
21000;SDS011;10658;50.920;12.238;2023-03-01T10:47:21;24.50;;;14.05;;
21000;SDS011;10658;50.920;12.238;2023-03-01T10:51:50;31.40;;;16.42;;
21000;SDS011;10658;50.920;12.238;2023-03-01T10:56:08;26.38;;;15.50;;
21000;SDS011;10658;50.920;12.238;2023-03-01T11:00:16;24.50;;;15.57;;
21000;SDS011;10658;50.920;12.238;2023-03-01T11:04:28;24.77;;;14.77;;
21000;SDS011;10658;50.920;12.238;2023-03-01T11:08:53;27.15;;;15.90;;
21000;SDS011;10658;50.920;12.238;2023-03-01T11:13:24;26.60;;;14.27;;
21000;SDS011;10658;50.920;12.238;2023-03-01T11:22:11;27.98;;;15.35;;
21000;SDS011;10658;50.920;12.238;2023-03-01T11:26:14;25.88;;;13.98;;
21000;SDS011;10658;50.920;12.238;2023-03-01T11:30:20;22.67;;;13.98;;
21000;SDS011;10658;50.920;12.238;2023-03-01T11:34:51;26.83;;;14.80;;
21000;SDS011;10658;50.920;12.238;2023-03-01T11:44:25;25.67;;;14.95;;
21000;SDS011;10658;50.920;12.238;2023-03-01T12:06:11;24.20;;;13.63;;
21000;SDS011;10658;50.920;12.238;2023-03-01T12:10:28;24.80;;;14.10;;
21000;SDS011;10658;50.920;12.238;2023-03-01T12:19:26;22.95;;;12.35;;
21000;SDS011;10658;50.920;12.238;2023-03-01T12:23:54;20.10;;;12.32;;
21000;SDS011;10658;50.920;12.238;2023-03-01T12:32:57;25.58;;;13.77;;
21000;SDS011;10658;50.920;12.238;2023-03-01T12:55:07;21.55;;;13.02;;
21000;SDS011;10658;50.920;12.238;2023-03-01T12:59:21;24.13;;;12.40;;
21000;SDS011;10658;50.920;12.238;2023-03-01T13:08:01;24.75;;;13.18;;
21000;SDS011;10658;50.920;12.238;2023-03-01T13:16:45;23.58;;;13.77;;
21000;SDS011;10658;50.920;12.238;2023-03-01T13:21:07;26.48;;;12.82;;
21000;SDS011;10658;50.920;12.238;2023-03-01T13:25:13;25.10;;;13.90;;
21000;SDS011;10658;50.920;12.238;2023-03-01T13:29:26;22.42;;;12.05;;
21000;SDS011;10658;50.920;12.238;2023-03-01T13:37:35;20.55;;;12.90;;
21000;SDS011;10658;50.920;12.238;2023-03-01T13:45:40;26.75;;;12.82;;
21000;SDS011;10658;50.920;12.238;2023-03-01T13:49:55;24.00;;;12.75;;
21000;SDS011;10658;50.920;12.238;2023-03-01T13:54:29;25.88;;;14.20;;
21000;SDS011;10658;50.920;12.238;2023-03-01T13:58:31;22.98;;;12.70;;
21000;SDS011;10658;50.920;12.238;2023-03-01T14:02:44;22.13;;;13.13;;
21000;SDS011;10658;50.920;12.238;2023-03-01T14:06:46;23.60;;;13.23;;
21000;SDS011;10658;50.920;12.238;2023-03-01T14:10:52;23.23;;;12.50;;
21000;SDS011;10658;50.920;12.238;2023-03-01T14:20:27;21.08;;;12.50;;
21000;SDS011;10658;50.920;12.238;2023-03-01T14:24:33;22.45;;;13.57;;
21000;SDS011;10658;50.920;12.238;2023-03-01T14:28:42;21.67;;;12.25;;
21000;SDS011;10658;50.920;12.238;2023-03-01T14:43:27;22.52;;;13.68;;
21000;SDS011;10658;50.920;12.238;2023-03-01T14:47:39;23.35;;;13.60;;
21000;SDS011;10658;50.920;12.238;2023-03-01T14:56:12;22.98;;;13.82;;
21000;SDS011;10658;50.920;12.238;2023-03-01T15:00:22;23.95;;;13.13;;
21000;SDS011;10658;50.920;12.238;2023-03-01T15:05:08;20.60;;;13.43;;
21000;SDS011;10658;50.920;12.238;2023-03-01T15:09:12;21.40;;;12.80;;
21000;SDS011;10658;50.920;12.238;2023-03-01T15:13:44;21.30;;;12.02;;
21000;SDS011;10658;50.920;12.238;2023-03-01T15:17:55;22.00;;;12.93;;
21000;SDS011;10658;50.920;12.238;2023-03-01T15:22:01;24.83;;;12.02;;
21000;SDS011;10658;50.920;12.238;2023-03-01T15:26:23;22.85;;;11.23;;
21000;SDS011;10658;50.920;12.238;2023-03-01T15:30:37;20.33;;;12.50;;
21000;SDS011;10658;50.920;12.238;2023-03-01T15:34:39;23.50;;;11.57;;
21000;SDS011;10658;50.920;12.238;2023-03-01T15:38:54;21.83;;;11.73;;
21000;SDS011;10658;50.920;12.238;2023-03-01T15:43:01;22.38;;;11.75;;
21000;SDS011;10658;50.920;12.238;2023-03-01T15:47:28;17.67;;;10.68;;
21000;SDS011;10658;50.920;12.238;2023-03-01T15:51:35;17.38;;;10.15;;
21000;SDS011;10658;50.920;12.238;2023-03-01T15:55:39;17.00;;;9.68;;
21000;SDS011;10658;50.920;12.238;2023-03-01T15:59:43;16.45;;;10.50;;
21000;SDS011;10658;50.920;12.238;2023-03-01T16:03:48;19.50;;;10.40;;
21000;SDS011;10658;50.920;12.238;2023-03-01T16:07:54;16.90;;;9.98;;
21000;SDS011;10658;50.920;12.238;2023-03-01T16:11:56;17.15;;;9.10;;
21000;SDS011;10658;50.920;12.238;2023-03-01T16:15:59;18.67;;;10.60;;
21000;SDS011;10658;50.920;12.238;2023-03-01T16:20:02;16.75;;;10.38;;
21000;SDS011;10658;50.920;12.238;2023-03-01T16:24:05;14.02;;;8.73;;
21000;SDS011;10658;50.920;12.238;2023-03-01T16:28:07;14.55;;;8.82;;
21000;SDS011;10658;50.920;12.238;2023-03-01T16:32:20;14.10;;;8.02;;
21000;SDS011;10658;50.920;12.238;2023-03-01T16:36:23;11.85;;;7.50;;
21000;SDS011;10658;50.920;12.238;2023-03-01T16:40:27;20.88;;;8.95;;
21000;SDS011;10658;50.920;12.238;2023-03-01T16:44:30;13.43;;;7.57;;
21000;SDS011;10658;50.920;12.238;2023-03-01T16:48:34;13.43;;;7.75;;
21000;SDS011;10658;50.920;12.238;2023-03-01T16:52:37;13.85;;;7.22;;
21000;SDS011;10658;50.920;12.238;2023-03-01T16:56:42;13.65;;;7.13;;
21000;SDS011;10658;50.920;12.238;2023-03-01T17:00:45;13.50;;;7.38;;
21000;SDS011;10658;50.920;12.238;2023-03-01T17:04:53;12.55;;;7.57;;
21000;SDS011;10658;50.920;12.238;2023-03-01T17:19:06;15.80;;;7.15;;
21000;SDS011;10658;50.920;12.238;2023-03-01T17:23:25;16.38;;;8.02;;
21000;SDS011;10658;50.920;12.238;2023-03-01T17:38:16;11.65;;;7.57;;
21000;SDS011;10658;50.920;12.238;2023-03-01T17:42:22;15.20;;;9.20;;
21000;SDS011;10658;50.920;12.238;2023-03-01T17:46:23;15.32;;;9.30;;
21000;SDS011;10658;50.920;12.238;2023-03-01T17:50:25;15.23;;;8.88;;
21000;SDS011;10658;50.920;12.238;2023-03-01T17:54:28;21.20;;;9.63;;
21000;SDS011;10658;50.920;12.238;2023-03-01T17:58:36;17.75;;;8.75;;
21000;SDS011;10658;50.920;12.238;2023-03-01T18:02:40;18.60;;;9.65;;
21000;SDS011;10658;50.920;12.238;2023-03-01T18:10:46;21.65;;;12.38;;
21000;SDS011;10658;50.920;12.238;2023-03-01T18:14:48;17.92;;;10.10;;
21000;SDS011;10658;50.920;12.238;2023-03-01T18:18:53;23.67;;;10.60;;
21000;SDS011;10658;50.920;12.238;2023-03-01T18:22:55;17.17;;;10.80;;
21000;SDS011;10658;50.920;12.238;2023-03-01T18:27:00;17.00;;;9.73;;
21000;SDS011;10658;50.920;12.238;2023-03-01T18:31:02;18.40;;;8.90;;
21000;SDS011;10658;50.920;12.238;2023-03-01T18:35:09;20.95;;;10.43;;
21000;SDS011;10658;50.920;12.238;2023-03-01T18:39:13;17.23;;;9.57;;
21000;SDS011;10658;50.920;12.238;2023-03-01T18:43:19;19.55;;;11.35;;
21000;SDS011;10658;50.920;12.238;2023-03-01T18:47:20;17.70;;;10.45;;
21000;SDS011;10658;50.920;12.238;2023-03-01T18:51:23;22.17;;;9.52;;
21000;SDS011;10658;50.920;12.238;2023-03-01T18:55:34;24.30;;;11.18;;
21000;SDS011;10658;50.920;12.238;2023-03-01T18:59:41;21.10;;;11.05;;
21000;SDS011;10658;50.920;12.238;2023-03-01T19:03:43;19.60;;;10.50;;
21000;SDS011;10658;50.920;12.238;2023-03-01T19:07:46;19.77;;;10.75;;
21000;SDS011;10658;50.920;12.238;2023-03-01T19:11:48;20.15;;;10.55;;
21000;SDS011;10658;50.920;12.238;2023-03-01T19:16:06;23.52;;;11.75;;
21000;SDS011;10658;50.920;12.238;2023-03-01T19:20:17;19.92;;;11.50;;
21000;SDS011;10658;50.920;12.238;2023-03-01T19:24:20;24.13;;;12.55;;
21000;SDS011;10658;50.920;12.238;2023-03-01T19:28:21;26.15;;;13.70;;
21000;SDS011;10658;50.920;12.238;2023-03-01T19:32:23;19.58;;;11.10;;
21000;SDS011;10658;50.920;12.238;2023-03-01T19:36:50;18.95;;;11.52;;
21000;SDS011;10658;50.920;12.238;2023-03-01T19:40:53;21.25;;;12.10;;
21000;SDS011;10658;50.920;12.238;2023-03-01T19:44:55;22.13;;;11.88;;
21000;SDS011;10658;50.920;12.238;2023-03-01T19:48:57;21.30;;;11.77;;
21000;SDS011;10658;50.920;12.238;2023-03-01T19:52:59;20.95;;;12.07;;
21000;SDS011;10658;50.920;12.238;2023-03-01T19:57:01;22.08;;;12.02;;
21000;SDS011;10658;50.920;12.238;2023-03-01T20:01:03;20.13;;;12.07;;
21000;SDS011;10658;50.920;12.238;2023-03-01T20:05:16;22.70;;;11.95;;
21000;SDS011;10658;50.920;12.238;2023-03-01T20:09:17;21.25;;;12.18;;
21000;SDS011;10658;50.920;12.238;2023-03-01T20:13:22;24.02;;;11.75;;
21000;SDS011;10658;50.920;12.238;2023-03-01T20:17:23;23.00;;;10.85;;
21000;SDS011;10658;50.920;12.238;2023-03-01T20:21:25;17.02;;;10.63;;
21000;SDS011;10658;50.920;12.238;2023-03-01T20:25:30;22.30;;;11.30;;
21000;SDS011;10658;50.920;12.238;2023-03-01T20:29:35;16.90;;;10.77;;
21000;SDS011;10658;50.920;12.238;2023-03-01T20:33:40;22.52;;;12.20;;
21000;SDS011;10658;50.920;12.238;2023-03-01T20:38:07;21.80;;;11.43;;
21000;SDS011;10658;50.920;12.238;2023-03-01T20:42:10;19.30;;;11.00;;
21000;SDS011;10658;50.920;12.238;2023-03-01T20:46:11;20.92;;;10.77;;
21000;SDS011;10658;50.920;12.238;2023-03-01T20:50:15;22.17;;;10.57;;
21000;SDS011;10658;50.920;12.238;2023-03-01T20:54:17;19.75;;;11.35;;
21000;SDS011;10658;50.920;12.238;2023-03-01T20:58:21;22.58;;;10.18;;
21000;SDS011;10658;50.920;12.238;2023-03-01T21:02:25;19.25;;;11.27;;
21000;SDS011;10658;50.920;12.238;2023-03-01T21:06:27;16.63;;;9.52;;
21000;SDS011;10658;50.920;12.238;2023-03-01T21:10:29;16.95;;;10.38;;
21000;SDS011;10658;50.920;12.238;2023-03-01T21:14:31;20.38;;;11.27;;
21000;SDS011;10658;50.920;12.238;2023-03-01T21:28:44;19.33;;;10.13;;
21000;SDS011;10658;50.920;12.238;2023-03-01T21:32:46;19.42;;;10.65;;
21000;SDS011;10658;50.920;12.238;2023-03-01T21:36:47;24.67;;;11.00;;
21000;SDS011;10658;50.920;12.238;2023-03-01T21:40:49;19.98;;;9.88;;
21000;SDS011;10658;50.920;12.238;2023-03-01T21:44:50;21.40;;;10.88;;
21000;SDS011;10658;50.920;12.238;2023-03-01T21:48:53;21.80;;;11.68;;
21000;SDS011;10658;50.920;12.238;2023-03-01T21:52:56;16.85;;;9.57;;
21000;SDS011;10658;50.920;12.238;2023-03-01T21:56:57;19.23;;;10.50;;
21000;SDS011;10658;50.920;12.238;2023-03-01T22:01:10;21.80;;;10.25;;
21000;SDS011;10658;50.920;12.238;2023-03-01T22:05:13;20.07;;;9.87;;
21000;SDS011;10658;50.920;12.238;2023-03-01T22:09:18;14.95;;;8.43;;
21000;SDS011;10658;50.920;12.238;2023-03-01T22:13:24;18.13;;;9.55;;
21000;SDS011;10658;50.920;12.238;2023-03-01T22:17:25;19.92;;;10.23;;
21000;SDS011;10658;50.920;12.238;2023-03-01T22:21:26;20.33;;;9.75;;
21000;SDS011;10658;50.920;12.238;2023-03-01T22:25:28;20.98;;;8.68;;
21000;SDS011;10658;50.920;12.238;2023-03-01T22:29:31;14.50;;;8.80;;
21000;SDS011;10658;50.920;12.238;2023-03-01T22:33:34;18.70;;;8.90;;
21000;SDS011;10658;50.920;12.238;2023-03-01T22:37:36;18.60;;;10.25;;
21000;SDS011;10658;50.920;12.238;2023-03-01T22:41:39;16.25;;;8.77;;
21000;SDS011;10658;50.920;12.238;2023-03-01T22:45:43;17.90;;;9.48;;
21000;SDS011;10658;50.920;12.238;2023-03-01T22:49:47;16.45;;;9.00;;
21000;SDS011;10658;50.920;12.238;2023-03-01T22:53:51;18.30;;;9.82;;
21000;SDS011;10658;50.920;12.238;2023-03-01T22:57:52;16.13;;;9.48;;
21000;SDS011;10658;50.920;12.238;2023-03-01T23:01:53;16.77;;;9.60;;
21000;SDS011;10658;50.920;12.238;2023-03-01T23:09:59;14.53;;;8.87;;
21000;SDS011;10658;50.920;12.238;2023-03-01T23:14:02;18.35;;;9.77;;
21000;SDS011;10658;50.920;12.238;2023-03-01T23:18:04;18.02;;;9.27;;
21000;SDS011;10658;50.920;12.238;2023-03-01T23:22:06;21.08;;;11.20;;
21000;SDS011;10658;50.920;12.238;2023-03-01T23:26:07;16.92;;;10.43;;
21000;SDS011;10658;50.920;12.238;2023-03-01T23:30:10;15.25;;;9.07;;
21000;SDS011;10658;50.920;12.238;2023-03-01T23:34:23;18.92;;;9.45;;
21000;SDS011;10658;50.920;12.238;2023-03-01T23:38:26;15.63;;;9.40;;
21000;SDS011;10658;50.920;12.238;2023-03-01T23:42:31;17.30;;;9.13;;
21000;SDS011;10658;50.920;12.238;2023-03-01T23:46:33;15.40;;;8.35;;
21000;SDS011;10658;50.920;12.238;2023-03-01T23:50:38;16.35;;;9.77;;
21000;SDS011;10658;50.920;12.238;2023-03-01T23:54:42;14.57;;;8.90;;
21000;SDS011;10658;50.920;12.238;2023-03-01T23:58:43;20.52;;;10.68;;
